Time;durP1;ratioP1;P1;durP2;ratioP2;P2;SDS_P1;SDS_P2;PMS_P1;PMS_P2;Temp;Humidity;BMP_temperature;BMP_pressure;BME280_temperature;BME280_humidity;BME280_pressure;Samples;Min_cycle;Max_cycle;Signal;HPM_P1;HPM_P2
2021/12/06 00:01:51;;;;;;;38.72;20.98;;;1.80;99.90;;;;;;4954969;28;20051;-75
2021/12/06 00:04:23;;;;;;;33.90;19.40;;;1.80;99.90;;;;;;4948332;29;20055;-79
2021/12/06 00:06:53;;;;;;;35.65;19.92;;;1.80;99.90;;;;;;4955069;29;20047;-76
2021/12/06 00:09:23;;;;;;;37.00;21.08;;;1.80;99.90;;;;;;4937552;29;20047;-78
2021/12/06 00:11:51;;;;;;;41.75;21.05;;;1.80;99.90;;;;;;4954155;29;20063;-76
2021/12/06 00:14:17;;;;;;;37.15;21.38;;;1.80;99.90;;;;;;4955223;29;20047;-77
2021/12/06 00:16:43;;;;;;;40.47;22.00;;;1.80;99.90;;;;;;4954485;29;20054;-76
2021/12/06 00:19:08;;;;;;;39.28;21.60;;;1.80;99.90;;;;;;4937119;29;20126;-77
2021/12/06 00:21:34;;;;;;;38.47;23.05;;;1.80;99.90;;;;;;4937847;29;20372;-77
2021/12/06 00:24:01;;;;;;;40.97;22.80;;;1.80;99.90;;;;;;4954470;29;20491;-76
2021/12/06 00:26:26;;;;;;;39.70;21.42;;;1.80;99.90;;;;;;4954845;29;20047;-76
2021/12/06 00:28:57;;;;;;;38.10;21.15;;;2.40;99.90;;;;;;4954236;29;20119;-76
2021/12/06 00:31:24;;;;;;;42.90;20.90;;;1.80;99.90;;;;;;4954424;29;20568;-76
2021/12/06 00:33:57;;;;;;;40.40;20.83;;;1.80;99.90;;;;;;4953985;29;20087;-76
2021/12/06 00:36:27;;;;;;;41.33;19.95;;;1.80;99.90;;;;;;4954777;29;20039;-78
2021/12/06 00:38:54;;;;;;;39.60;21.05;;;1.80;99.90;;;;;;4954466;29;20051;-77
2021/12/06 00:41:20;;;;;;;39.70;20.35;;;1.80;99.90;;;;;;4954618;29;20039;-77
2021/12/06 00:43:46;;;;;;;38.83;20.95;;;1.80;99.90;;;;;;4954165;29;20046;-77
2021/12/06 00:46:12;;;;;;;37.75;20.60;;;1.80;99.90;;;;;;4936731;29;20363;-77
2021/12/06 00:48:38;;;;;;;40.55;21.25;;;1.70;99.90;;;;;;4954229;29;20387;-77
2021/12/06 00:51:04;;;;;;;40.53;21.20;;;1.80;99.90;;;;;;4954214;29;20047;-77
2021/12/06 00:53:29;;;;;;;36.47;21.08;;;2.40;99.90;;;;;;4954062;29;20511;-77
2021/12/06 00:55:55;;;;;;;40.83;21.95;;;1.80;99.90;;;;;;4920841;29;20051;-78
2021/12/06 00:58:21;;;;;;;40.17;21.65;;;1.80;99.90;;;;;;4946143;29;20094;-77
2021/12/06 01:00:50;;;;;;;42.88;21.98;;;1.80;99.90;;;;;;4953993;29;20039;-77
2021/12/06 01:03:23;;;;;;;38.20;21.70;;;1.80;99.90;;;;;;4953755;29;20043;-77
2021/12/06 01:05:49;;;;;;;41.10;22.08;;;1.80;99.90;;;;;;4954193;29;20050;-77
2021/12/06 01:08:16;;;;;;;41.85;22.58;;;1.80;99.90;;;;;;4953792;29;20055;-78
2021/12/06 01:10:42;;;;;;;42.10;23.45;;;1.80;99.90;;;;;;4953952;29;20069;-77
2021/12/06 01:13:08;;;;;;;40.83;21.58;;;1.80;99.90;;;;;;4943102;29;20059;-77
2021/12/06 01:15:35;;;;;;;44.17;22.50;;;1.80;99.90;;;;;;4927788;29;20122;-77
2021/12/06 01:18:02;;;;;;;44.00;22.88;;;1.80;99.90;;;;;;4928523;29;20039;-75
2021/12/06 01:20:31;;;;;;;41.92;22.50;;;1.80;99.90;;;;;;4938656;29;20054;-76
2021/12/06 01:23:03;;;;;;;44.88;22.77;;;1.80;99.90;;;;;;4945674;29;20051;-78
2021/12/06 01:25:43;;;;;;;44.45;23.10;;;1.80;99.90;;;;;;4925820;29;20098;-78
2021/12/06 01:33:39;;;;;;;48.42;23.63;;;1.80;99.90;;;;;;4944609;29;20051;-77
2021/12/06 01:41:33;;;;;;;39.67;21.38;;;1.80;99.90;;;;;;4927921;29;20059;-76
2021/12/06 01:44:35;;;;;;;47.08;23.88;;;1.80;99.90;;;;;;4945324;29;20054;-76
2021/12/06 01:47:25;;;;;;;42.90;22.52;;;1.60;99.90;;;;;;4860589;29;20083;-76
2021/12/06 01:49:58;;;;;;;48.45;22.85;;;1.80;99.90;;;;;;4864606;29;20089;-77
2021/12/06 01:52:29;;;;;;;43.35;22.20;;;1.80;99.90;;;;;;4865852;29;20109;-77
2021/12/06 01:54:56;;;;;;;48.20;22.63;;;1.80;99.90;;;;;;4862811;29;20140;-77
2021/12/06 01:57:26;;;;;;;45.38;22.98;;;1.80;99.90;;;;;;4865091;29;20126;-77
2021/12/06 01:59:53;;;;;;;45.58;22.45;;;1.80;99.90;;;;;;4852151;29;20049;-77
2021/12/06 02:02:19;;;;;;;44.10;22.38;;;1.80;99.90;;;;;;4866516;29;20112;-76
2021/12/06 02:04:45;;;;;;;47.80;24.10;;;1.80;99.90;;;;;;4864675;29;20089;-77
2021/12/06 02:07:17;;;;;;;47.67;23.90;;;1.80;99.90;;;;;;4864363;29;20077;-77
2021/12/06 02:09:44;;;;;;;46.90;23.85;;;1.80;99.90;;;;;;4848909;29;20089;-77
2021/12/06 02:12:11;;;;;;;47.70;23.60;;;1.80;99.90;;;;;;4864262;29;20065;-77
2021/12/06 02:14:50;;;;;;;44.53;22.27;;;1.80;99.90;;;;;;4864350;29;20476;-77
2021/12/06 02:17:23;;;;;;;48.47;23.80;;;1.80;99.90;;;;;;4863629;29;20044;-76
2021/12/06 02:19:54;;;;;;;45.28;23.33;;;1.80;99.90;;;;;;4859332;29;20090;-77
2021/12/06 02:22:23;;;;;;;49.13;23.50;;;1.80;99.90;;;;;;4941971;29;20052;-77
2021/12/06 02:24:52;;;;;;;49.90;24.33;;;1.80;99.90;;;;;;4945165;29;20785;-77
2021/12/06 02:27:22;;;;;;;50.35;24.83;;;1.80;99.90;;;;;;4948729;29;20408;-77
2021/12/06 02:29:49;;;;;;;47.85;24.08;;;1.80;99.90;;;;;;4945887;29;20055;-77
2021/12/06 02:32:16;;;;;;;49.83;24.88;;;1.80;99.90;;;;;;4945605;29;20067;-77
2021/12/06 02:34:50;;;;;;;42.78;22.95;;;1.80;99.90;;;;;;4952654;29;20118;-77
2021/12/06 02:37:22;;;;;;;46.50;23.43;;;1.80;99.90;;;;;;4912501;29;20048;-77
2021/12/06 02:39:48;;;;;;;47.60;24.52;;;2.60;99.90;;;;;;4947348;29;20047;-77
2021/12/06 02:42:16;;;;;;;54.90;25.23;;;1.80;99.90;;;;;;4948858;29;20043;-77
2021/12/06 02:44:44;;;;;;;51.78;24.48;;;1.80;99.90;;;;;;4947267;29;20376;-77
2021/12/06 02:47:10;;;;;;;50.00;24.85;;;1.80;99.90;;;;;;4945001;29;20065;-77
2021/12/06 02:49:36;;;;;;;53.25;25.35;;;1.80;99.90;;;;;;4945504;29;20502;-78
2021/12/06 02:52:03;;;;;;;50.60;24.40;;;1.80;99.90;;;;;;4948679;29;20414;-75
2021/12/06 02:54:29;;;;;;;46.97;24.00;;;1.80;99.90;;;;;;4948087;29;20047;-76
2021/12/06 02:59:33;;;;;;;55.60;25.40;;;1.80;99.90;;;;;;4948812;29;20455;-77
2021/12/06 03:02:06;;;;;;;57.20;26.10;;;1.80;99.90;;;;;;4927830;29;20139;-77
2021/12/06 03:04:32;;;;;;;49.88;25.48;;;1.80;99.90;;;;;;4945004;29;20050;-77
2021/12/06 03:06:59;;;;;;;54.55;26.42;;;1.80;99.90;;;;;;4946962;29;20051;-77
2021/12/06 03:09:33;;;;;;;58.22;27.40;;;1.80;99.90;;;;;;4948032;29;20097;-78
2021/12/06 03:12:02;;;;;;;55.50;25.25;;;1.80;99.90;;;;;;4936904;29;20055;-77
2021/12/06 03:14:32;;;;;;;56.45;26.17;;;1.80;99.90;;;;;;4956040;29;20498;-77
2021/12/06 03:17:00;;;;;;;59.22;27.08;;;1.80;99.90;;;;;;4955808;29;20086;-76
2021/12/06 03:19:26;;;;;;;56.25;26.10;;;1.80;99.90;;;;;;4938668;29;20082;-77
2021/12/06 03:21:52;;;;;;;59.08;27.45;;;1.80;99.90;;;;;;4955368;29;20044;-76
2021/12/06 03:24:19;;;;;;;63.65;28.30;;;1.80;99.90;;;;;;4955843;29;20043;-77
2021/12/06 03:26:45;;;;;;;61.83;26.63;;;1.80;99.90;;;;;;4955531;29;20050;-76
2021/12/06 03:29:12;;;;;;;61.22;28.38;;;1.90;99.90;;;;;;4955938;29;20126;-77
2021/12/06 03:31:38;;;;;;;62.05;28.02;;;1.80;99.90;;;;;;4955724;29;20039;-77
2021/12/06 03:34:06;;;;;;;65.88;29.40;;;1.90;99.90;;;;;;4955397;29;20391;-76
2021/12/06 03:36:35;;;;;;;56.88;27.45;;;1.90;99.90;;;;;;4954827;28;20051;-76
2021/12/06 03:39:06;;;;;;;59.40;27.20;;;1.90;99.90;;;;;;4955430;29;20508;-77
2021/12/06 03:41:31;;;;;;;59.90;27.35;;;1.90;99.90;;;;;;4955856;29;20132;-77
2021/12/06 03:43:59;;;;;;;65.85;28.42;;;1.90;99.90;;;;;;4955335;29;20138;-77
2021/12/06 03:46:29;;;;;;;58.92;28.65;;;1.90;99.90;;;;;;4955657;29;20035;-76
2021/12/06 03:48:55;;;;;;;64.15;29.05;;;1.90;99.90;;;;;;4955005;29;20380;-75
2021/12/06 03:51:21;;;;;;;66.57;28.95;;;1.90;99.90;;;;;;4937461;29;20167;-76
2021/12/06 03:53:46;;;;;;;61.75;29.70;;;1.90;99.90;;;;;;4955422;29;20043;-76
2021/12/06 03:56:13;;;;;;;61.60;28.98;;;1.90;99.90;;;;;;4955262;29;20054;-76
2021/12/06 03:58:39;;;;;;;63.90;28.15;;;1.90;99.90;;;;;;4955325;29;20042;-77
2021/12/06 04:01:06;;;;;;;60.45;27.75;;;1.90;99.90;;;;;;4955084;29;20179;-76
2021/12/06 04:03:35;;;;;;;56.13;26.10;;;1.90;99.90;;;;;;4955083;29;20136;-76
2021/12/06 04:06:02;;;;;;;59.58;27.52;;;1.90;99.90;;;;;;4937081;29;20055;-77
2021/12/06 04:08:28;;;;;;;55.25;27.63;;;1.90;99.90;;;;;;4955092;29;20434;-77
2021/12/06 04:10:55;;;;;;;60.47;27.85;;;1.90;99.90;;;;;;4955095;29;20047;-77
2021/12/06 04:13:21;;;;;;;57.33;27.67;;;1.90;99.90;;;;;;4954650;29;20063;-77
2021/12/06 04:15:47;;;;;;;51.80;25.70;;;1.90;99.90;;;;;;4955017;29;20094;-77
2021/12/06 04:18:13;;;;;;;55.40;26.65;;;1.90;99.90;;;;;;4954590;29;20043;-77
2021/12/06 04:20:39;;;;;;;53.15;24.90;;;2.00;99.90;;;;;;4954346;29;20039;-77
2021/12/06 04:23:08;;;;;;;59.83;26.50;;;1.90;99.90;;;;;;4954964;29;20043;-75
2021/12/06 04:25:35;;;;;;;55.75;26.55;;;2.00;99.90;;;;;;4955037;29;20126;-77
2021/12/06 04:28:05;;;;;;;52.75;25.23;;;2.00;99.90;;;;;;4937398;29;20055;-77
2021/12/06 04:30:31;;;;;;;54.15;25.77;;;2.00;99.90;;;;;;4947032;29;20039;-77
2021/12/06 04:32:58;;;;;;;51.60;24.55;;;2.00;99.90;;;;;;4954830;29;20043;-77
2021/12/06 04:35:25;;;;;;;54.17;26.60;;;2.00;99.90;;;;;;4954291;29;20067;-77
2021/12/06 04:37:51;;;;;;;57.75;26.80;;;2.00;99.90;;;;;;4954567;29;20082;-76
2021/12/06 04:40:17;;;;;;;60.35;26.27;;;2.00;99.90;;;;;;4954464;29;20071;-76
2021/12/06 04:42:43;;;;;;;56.33;27.52;;;2.00;99.90;;;;;;4936999;29;20047;-77
2021/12/06 04:45:11;;;;;;;58.30;26.55;;;2.00;99.90;;;;;;4954244;29;20035;-74
2021/12/06 04:47:36;;;;;;;55.58;26.48;;;2.00;99.90;;;;;;4937169;28;20043;-76
2021/12/06 04:50:05;;;;;;;55.63;26.38;;;2.00;99.90;;;;;;4953195;29;20039;-77
2021/12/06 04:52:31;;;;;;;57.78;26.60;;;2.00;99.90;;;;;;4954079;29;20078;-76
2021/12/06 04:55:00;;;;;;;57.92;27.02;;;2.00;99.90;;;;;;4954290;29;20557;-77
2021/12/06 04:57:40;;;;;;;57.05;26.45;;;2.00;99.90;;;;;;4937037;29;20058;-77
2021/12/06 05:00:21;;;;;;;58.03;27.45;;;2.00;99.90;;;;;;4954257;29;20410;-76
2021/12/06 05:02:47;;;;;;;53.28;25.52;;;2.00;99.90;;;;;;4947122;29;20093;-75
2021/12/06 05:05:22;;;;;;;56.75;25.17;;;2.00;99.90;;;;;;4954256;29;20031;-77
2021/12/06 05:07:53;;;;;;;56.22;26.70;;;2.00;99.90;;;;;;4946799;29;20055;-77
2021/12/06 05:10:20;;;;;;;54.60;27.75;;;2.10;99.90;;;;;;4953631;29;20039;-77
2021/12/06 05:12:46;;;;;;;54.13;26.25;;;2.00;99.90;;;;;;4953724;29;20066;-76
2021/12/06 05:15:13;;;;;;;55.85;27.10;;;2.00;99.90;;;;;;4953741;29;20051;-76
2021/12/06 05:17:40;;;;;;;60.50;26.33;;;2.00;99.90;;;;;;4953871;29;20054;-76
2021/12/06 05:20:08;;;;;;;57.80;26.20;;;2.00;99.90;;;;;;4954326;29;20102;-76
2021/12/06 05:22:34;;;;;;;61.33;27.27;;;2.00;99.90;;;;;;4953263;29;20062;-76
2021/12/06 05:25:00;;;;;;;61.17;28.30;;;2.00;99.90;;;;;;4953738;29;20102;-77
2021/12/06 05:27:29;;;;;;;59.63;25.90;;;2.00;99.90;;;;;;4953323;29;20070;-75
2021/12/06 05:29:57;;;;;;;55.38;25.65;;;2.00;99.90;;;;;;4953516;29;20091;-77
2021/12/06 05:32:25;;;;;;;54.50;25.92;;;2.00;99.90;;;;;;4953656;29;20181;-77
2021/12/06 05:34:57;;;;;;;58.35;26.80;;;2.10;99.90;;;;;;4953519;29;20129;-77
2021/12/06 05:37:24;;;;;;;55.28;26.52;;;2.00;99.90;;;;;;4953043;29;20055;-78
2021/12/06 05:39:50;;;;;;;53.53;25.77;;;2.10;99.90;;;;;;4953209;29;20089;-77
2021/12/06 05:42:16;;;;;;;59.95;25.73;;;2.10;99.90;;;;;;4953331;29;20059;-76
2021/12/06 05:44:42;;;;;;;59.85;26.13;;;2.00;99.90;;;;;;4953467;29;20067;-76
2021/12/06 05:47:08;;;;;;;63.67;27.08;;;2.00;99.90;;;;;;4953521;29;20698;-77
2021/12/06 05:49:34;;;;;;;62.65;26.58;;;2.10;99.90;;;;;;4952966;29;20098;-76
2021/12/06 05:52:00;;;;;;;59.05;26.70;;;2.00;99.90;;;;;;4953321;29;20043;-78
2021/12/06 05:54:26;;;;;;;57.75;25.92;;;2.00;99.90;;;;;;4953172;29;20455;-77
2021/12/06 05:56:52;;;;;;;56.75;26.20;;;2.00;99.90;;;;;;4953018;29;20043;-76
2021/12/06 05:59:18;;;;;;;53.80;25.33;;;2.00;99.90;;;;;;4952886;28;20118;-77
2021/12/06 06:01:47;;;;;;;51.83;23.60;;;2.00;99.90;;;;;;4952786;29;20050;-78
2021/12/06 06:04:13;;;;;;;56.30;24.02;;;2.00;99.90;;;;;;4935744;29;20106;-77
2021/12/06 06:06:38;;;;;;;64.20;26.48;;;2.00;99.90;;;;;;4953147;29;20430;-79
2021/12/06 06:09:06;;;;;;;62.55;27.08;;;2.00;99.90;;;;;;4935348;29;20051;-76
2021/12/06 06:11:34;;;;;;;55.70;25.05;;;2.00;99.90;;;;;;4952819;29;20073;-76
2021/12/06 06:14:00;;;;;;;67.60;27.67;;;2.00;99.90;;;;;;4952513;29;20555;-76
2021/12/06 06:16:31;;;;;;;62.35;27.05;;;2.00;99.90;;;;;;4935887;29;20055;-77
2021/12/06 06:18:57;;;;;;;68.60;26.30;;;2.00;99.90;;;;;;4953171;29;20051;-76
2021/12/06 06:21:23;;;;;;;57.28;25.25;;;2.00;99.90;;;;;;4953220;29;20054;-76
2021/12/06 06:23:48;;;;;;;64.80;26.52;;;2.00;99.90;;;;;;4952522;29;20051;-76
2021/12/06 06:26:14;;;;;;;61.40;25.52;;;2.00;99.90;;;;;;4952815;29;20422;-77
2021/12/06 06:28:40;;;;;;;67.65;27.13;;;2.00;99.90;;;;;;4952795;29;20105;-77
2021/12/06 06:31:06;;;;;;;59.95;24.55;;;2.00;99.90;;;;;;4935346;29;20106;-76
2021/12/06 06:33:31;;;;;;;62.13;25.52;;;2.00;99.90;;;;;;4953062;29;20454;-77
2021/12/06 06:35:57;;;;;;;65.10;26.95;;;2.00;99.90;;;;;;4953142;29;20095;-77
2021/12/06 06:38:23;;;;;;;59.38;23.38;;;2.00;99.90;;;;;;4953118;29;20039;-77
2021/12/06 06:40:49;;;;;;;62.67;25.65;;;2.00;99.90;;;;;;4952643;29;20095;-77
2021/12/06 06:43:15;;;;;;;70.95;27.48;;;2.00;99.90;;;;;;4952677;29;20121;-77
2021/12/06 06:45:41;;;;;;;61.15;25.05;;;2.00;99.90;;;;;;4952761;29;20060;-75
2021/12/06 06:48:07;;;;;;;66.18;26.35;;;2.00;99.90;;;;;;4953205;29;20043;-78
2021/12/06 06:50:33;;;;;;;60.88;24.73;;;2.00;99.90;;;;;;4952511;29;21535;-77
2021/12/06 06:52:58;;;;;;;59.70;23.70;;;2.00;99.90;;;;;;4952368;29;20550;-77
2021/12/06 06:55:24;;;;;;;59.10;24.77;;;2.00;99.90;;;;;;4952276;29;20126;-77
2021/12/06 06:57:51;;;;;;;65.22;24.88;;;2.00;99.90;;;;;;4952843;29;20055;-78
2021/12/06 07:00:37;;;;;;;70.43;26.42;;;2.00;99.90;;;;;;4952614;29;20375;-77
2021/12/06 07:03:06;;;;;;;64.97;26.30;;;2.00;99.90;;;;;;4946897;29;20047;-78
2021/12/06 07:05:32;;;;;;;68.30;25.67;;;2.00;99.90;;;;;;4952205;29;20050;-75
2021/12/06 07:07:58;;;;;;;66.38;27.15;;;2.00;99.90;;;;;;4952858;29;20045;-77
2021/12/06 07:10:24;;;;;;;69.85;27.33;;;1.90;99.90;;;;;;4952389;29;20039;-79
2021/12/06 07:12:54;;;;;;;67.10;26.05;;;1.90;99.90;;;;;;4954133;28;20062;-76
2021/12/06 07:15:28;;;;;;;80.60;29.17;;;1.90;99.90;;;;;;4938805;29;20488;-77
2021/12/06 07:17:55;;;;;;;80.32;28.38;;;2.00;99.90;;;;;;4955994;29;20055;-78
2021/12/06 07:20:22;;;;;;;74.85;28.85;;;2.00;99.90;;;;;;4955845;29;20055;-77
2021/12/06 07:22:51;;;;;;;71.18;28.33;;;2.00;99.90;;;;;;4955737;29;20043;-75
2021/12/06 07:25:19;;;;;;;79.68;28.38;;;2.00;99.90;;;;;;4955820;29;20059;-77
2021/12/06 07:27:46;;;;;;;66.28;26.60;;;2.00;99.90;;;;;;4955452;29;20138;-76
2021/12/06 07:30:14;;;;;;;64.75;25.98;;;2.00;99.90;;;;;;4955740;29;20414;-77
2021/12/06 07:32:41;;;;;;;71.57;27.13;;;2.00;99.90;;;;;;4955990;29;20451;-79
2021/12/06 07:35:08;;;;;;;74.45;26.40;;;2.00;99.90;;;;;;4955519;29;20035;-78
2021/12/06 07:37:34;;;;;;;71.50;27.27;;;2.00;99.90;;;;;;4955792;29;20487;-77
2021/12/06 07:40:00;;;;;;;67.57;27.17;;;2.00;99.90;;;;;;4938418;29;20483;-77
2021/12/06 07:42:26;;;;;;;80.10;28.33;;;2.00;99.90;;;;;;4937259;29;20051;-75
2021/12/06 07:44:52;;;;;;;77.05;28.23;;;2.00;99.90;;;;;;4956117;29;20054;-77
2021/12/06 07:47:19;;;;;;;70.68;27.33;;;2.00;99.90;;;;;;4955793;29;20095;-76
2021/12/06 07:49:45;;;;;;;73.03;27.38;;;2.00;99.90;;;;;;4955532;29;20122;-77
2021/12/06 07:52:11;;;;;;;78.80;27.35;;;2.30;99.90;;;;;;4955302;29;20055;-79
2021/12/06 07:54:38;;;;;;;70.38;28.48;;;2.00;99.90;;;;;;4938252;29;20450;-77
2021/12/06 07:57:05;;;;;;;81.47;28.25;;;2.00;99.90;;;;;;4954644;29;20046;-78
2021/12/06 07:59:30;;;;;;;70.85;26.05;;;2.10;99.90;;;;;;4955429;29;20089;-77
2021/12/06 08:01:56;;;;;;;71.18;28.58;;;2.10;99.90;;;;;;4937953;29;20055;-78
2021/12/06 08:04:22;;;;;;;68.53;26.85;;;2.40;99.90;;;;;;4955074;29;20051;-78
2021/12/06 08:06:48;;;;;;;72.85;26.60;;;2.10;99.90;;;;;;4955085;29;20054;-77
2021/12/06 08:09:14;;;;;;;65.65;27.00;;;2.10;99.90;;;;;;4954599;29;20050;-79
2021/12/06 08:11:41;;;;;;;73.18;26.77;;;2.10;99.90;;;;;;4954861;28;20059;-76
2021/12/06 08:14:08;;;;;;;69.65;26.45;;;2.10;99.90;;;;;;4954972;29;20047;-76
2021/12/06 08:16:42;;;;;;;59.08;24.75;;;2.10;99.90;;;;;;4937245;29;20562;-77
2021/12/06 08:19:08;;;;;;;70.80;25.40;;;2.10;99.90;;;;;;4955262;29;20039;-77
2021/12/06 08:21:34;;;;;;;70.32;26.13;;;2.10;99.90;;;;;;4937353;29;20047;-76
2021/12/06 08:24:01;;;;;;;73.60;26.70;;;2.20;99.90;;;;;;4954637;28;20126;-76
2021/12/06 08:26:30;;;;;;;69.88;26.88;;;2.10;99.90;;;;;;4955199;29;20090;-77
2021/12/06 08:28:58;;;;;;;65.75;25.15;;;2.10;99.90;;;;;;4954877;29;20542;-76
2021/12/06 08:31:24;;;;;;;72.13;27.25;;;2.20;99.90;;;;;;4955231;29;20051;-76
2021/12/06 08:33:51;;;;;;;73.85;26.05;;;2.20;99.90;;;;;;4938201;29;20062;-78
2021/12/06 08:36:18;;;;;;;72.82;26.55;;;2.20;99.90;;;;;;4955090;29;20086;-77
2021/12/06 08:38:44;;;;;;;72.97;27.30;;;2.20;99.90;;;;;;4937201;29;20035;-76
2021/12/06 08:41:14;;;;;;;68.38;26.15;;;2.20;99.90;;;;;;4937127;29;20051;-76
2021/12/06 08:43:41;;;;;;;70.18;25.48;;;2.20;99.90;;;;;;4954216;29;20046;-77
2021/12/06 08:46:16;;;;;;;62.17;24.27;;;2.20;99.90;;;;;;4954510;29;20364;-76
2021/12/06 08:48:43;;;;;;;68.20;25.95;;;2.30;99.90;;;;;;4937371;29;20047;-77
2021/12/06 08:51:16;;;;;;;68.57;26.75;;;2.30;99.90;;;;;;4951834;28;20515;-77
2021/12/06 08:53:43;;;;;;;73.25;27.58;;;2.30;99.90;;;;;;4954857;29;20039;-77
2021/12/06 08:56:08;;;;;;;65.50;23.88;;;2.30;99.90;;;;;;4954964;29;20046;-77
2021/12/06 08:58:35;;;;;;;68.00;23.98;;;2.40;99.90;;;;;;4954483;29;20435;-77
2021/12/06 09:01:01;;;;;;;53.25;23.20;;;2.40;99.90;;;;;;4954049;29;20046;-77
2021/12/06 09:03:27;;;;;;;57.75;22.92;;;2.40;99.90;;;;;;4953964;29;20134;-76
2021/12/06 09:05:55;;;;;;;52.88;22.88;;;2.40;99.90;;;;;;4954143;29;20398;-78
2021/12/06 09:08:21;;;;;;;50.70;22.02;;;2.40;99.90;;;;;;4936568;29;20051;-77
2021/12/06 09:10:50;;;;;;;53.67;22.15;;;2.40;99.90;;;;;;4953827;29;20051;-77
2021/12/06 09:13:18;;;;;;;54.17;23.75;;;2.40;99.90;;;;;;4953356;29;20511;-78
2021/12/06 09:15:43;;;;;;;53.00;23.15;;;2.50;99.90;;;;;;4953701;29;20090;-78
2021/12/06 09:18:10;;;;;;;46.30;19.77;;;2.50;99.90;;;;;;4936857;29;20078;-77
2021/12/06 09:20:40;;;;;;;47.15;21.08;;;2.50;99.90;;;;;;4953168;29;20050;-78
2021/12/06 09:23:07;;;;;;;47.28;21.05;;;2.40;99.90;;;;;;4954045;29;20079;-78
2021/12/06 09:25:34;;;;;;;48.78;21.55;;;2.50;99.90;;;;;;4954316;29;20055;-78
2021/12/06 09:28:02;;;;;;;53.97;19.83;;;2.50;99.90;;;;;;4954170;29;20149;-77
2021/12/06 09:30:32;;;;;;;45.53;20.42;;;2.50;99.90;;;;;;4953956;29;20046;-77
2021/12/06 09:33:00;;;;;;;50.30;21.63;;;2.50;99.90;;;;;;4936905;29;20488;-77
2021/12/06 09:35:28;;;;;;;45.10;20.05;;;2.50;99.90;;;;;;4953292;28;20534;-77
2021/12/06 09:37:58;;;;;;;46.35;20.38;;;2.50;99.90;;;;;;4945394;29;20055;-80
2021/12/06 09:40:26;;;;;;;60.20;22.45;;;2.50;99.90;;;;;;4935018;29;20044;-77
2021/12/06 09:42:53;;;;;;;133.93;27.67;;;2.50;99.90;;;;;;4942396;29;20047;-77
2021/12/06 09:45:25;;;;;;;47.40;21.60;;;2.50;99.90;;;;;;4952970;29;20047;-78
2021/12/06 09:47:53;;;;;;;51.33;20.55;;;2.50;99.90;;;;;;4953508;29;20091;-77
2021/12/06 09:50:30;;;;;;;47.47;19.92;;;2.50;99.90;;;;;;4935706;29;20062;-77
2021/12/06 09:52:59;;;;;;;53.00;21.08;;;2.40;99.90;;;;;;4953286;29;20063;-79
2021/12/06 09:55:27;;;;;;;55.55;20.42;;;2.90;99.90;;;;;;4952222;29;20066;-76
2021/12/06 09:57:53;;;;;;;46.17;20.83;;;2.50;99.90;;;;;;4952982;29;20051;-79
2021/12/06 10:00:22;;;;;;;47.67;21.58;;;2.50;99.90;;;;;;4933164;29;20052;-81
2021/12/06 10:02:48;;;;;;;49.63;22.02;;;2.40;99.90;;;;;;4934996;29;20055;-77
2021/12/06 10:05:14;;;;;;;50.17;21.30;;;2.40;99.90;;;;;;4953529;29;20043;-79
2021/12/06 10:07:40;;;;;;;48.53;21.27;;;2.40;99.90;;;;;;4935796;29;20043;-79
2021/12/06 10:10:08;;;;;;;45.97;20.85;;;2.50;99.90;;;;;;4952423;29;20517;-77
2021/12/06 10:12:35;;;;;;;106.40;26.50;;;2.50;99.90;;;;;;4953011;29;20466;-79
2021/12/06 10:15:03;;;;;;;50.40;22.13;;;2.50;99.90;;;;;;4953414;29;20039;-77
2021/12/06 10:17:29;;;;;;;54.58;22.77;;;2.50;99.90;;;;;;4952669;29;20490;-77
2021/12/06 10:19:55;;;;;;;51.72;21.38;;;3.00;99.90;;;;;;4952796;29;20039;-77
2021/12/06 10:22:21;;;;;;;49.78;20.33;;;2.50;99.90;;;;;;4952675;29;20046;-80
2021/12/06 10:24:59;;;;;;;43.22;20.67;;;2.50;99.90;;;;;;4953590;29;20051;-79
2021/12/06 10:27:25;;;;;;;50.15;22.20;;;2.40;99.90;;;;;;4953414;29;20513;-79
2021/12/06 10:29:59;;;;;;;55.03;22.35;;;2.80;99.90;;;;;;4953455;29;20130;-81
2021/12/06 10:32:28;;;;;;;46.95;21.63;;;2.40;99.90;;;;;;4953251;29;20047;-79
2021/12/06 10:34:58;;;;;;;46.67;22.23;;;2.40;99.90;;;;;;4953088;29;20051;-78
2021/12/06 10:37:47;;;;;;;50.17;22.48;;;2.40;99.90;;;;;;4935816;29;20043;-78
2021/12/06 10:40:19;;;;;;;52.42;23.45;;;2.40;99.90;;;;;;4953268;29;20047;-79
2021/12/06 10:42:46;;;;;;;59.00;26.90;;;2.30;99.90;;;;;;4953191;29;20126;-82
2021/12/06 10:45:18;;;;;;;60.08;26.77;;;2.30;99.90;;;;;;4919338;29;20054;-78
2021/12/06 10:48:14;;;;;;;68.95;29.08;;;2.40;99.90;;;;;;4955630;28;20046;-78
2021/12/06 10:50:46;;;;;;;;;;;2.30;99.90;;;;;;4952266;29;20043;-77
2021/12/06 10:53:12;;;;;;;70.68;30.23;;;2.40;99.90;;;;;;4956346;29;19993;-79
2021/12/06 10:55:41;;;;;;;77.85;31.50;;;2.40;99.90;;;;;;4956329;29;20475;-79
2021/12/06 10:58:11;;;;;;;72.82;30.13;;;2.40;99.90;;;;;;4956091;29;20509;-78
2021/12/06 11:00:50;;;;;;;62.90;28.60;;;2.30;99.90;;;;;;4955768;29;20066;-76
2021/12/06 11:03:17;;;;;;;63.80;27.65;;;2.30;99.90;;;;;;4934193;29;20083;-75
2021/12/06 11:05:44;;;;;;;60.38;25.08;;;2.40;99.90;;;;;;4955684;29;20039;-74
2021/12/06 11:08:11;;;;;;;51.88;23.58;;;2.40;99.90;;;;;;4955220;29;20050;-77
2021/12/06 11:10:43;;;;;;;51.88;23.15;;;2.40;99.90;;;;;;4956062;29;20106;-76
2021/12/06 11:13:14;;;;;;;49.42;21.77;;;2.40;99.90;;;;;;4955178;29;20059;-76
2021/12/06 11:16:01;;;;;;;55.50;23.15;;;2.40;99.90;;;;;;4938135;29;20047;-78
2021/12/06 11:18:36;;;;;;;47.72;22.17;;;2.40;99.90;;;;;;4936568;29;20074;-78
2021/12/06 11:21:04;;;;;;;44.33;20.02;;;2.40;99.90;;;;;;4955529;29;20062;-77
2021/12/06 11:23:30;;;;;;;46.05;20.33;;;2.40;99.90;;;;;;4955281;29;20090;-76
2021/12/06 11:26:03;;;;;;;45.42;19.90;;;2.50;99.90;;;;;;4955505;29;20054;-78
2021/12/06 11:28:32;;;;;;;46.25;20.58;;;2.50;99.90;;;;;;4955096;29;20466;-75
2021/12/06 11:31:06;;;;;;;45.60;21.05;;;2.50;99.90;;;;;;4955411;29;20047;-76
2021/12/06 11:33:34;;;;;;;49.58;22.95;;;2.50;99.90;;;;;;4938383;29;20086;-75
2021/12/06 11:36:17;;;;;;;48.03;21.38;;;2.70;99.90;;;;;;4955658;29;20051;-75
2021/12/06 11:38:46;;;;;;;45.25;20.35;;;3.50;99.90;;;;;;4955631;29;20051;-75
2021/12/06 11:41:12;;;;;;;44.75;20.38;;;2.50;99.90;;;;;;4955665;29;20047;-75
2021/12/06 11:43:39;;;;;;;48.35;20.00;;;2.60;99.90;;;;;;4937862;29;20066;-78
2021/12/06 11:46:07;;;;;;;46.03;21.00;;;2.60;99.90;;;;;;4955000;29;20051;-77
2021/12/06 11:48:37;;;;;;;46.30;19.40;;;2.60;99.90;;;;;;4955305;29;20066;-74
2021/12/06 11:51:10;;;;;;;44.38;19.45;;;2.70;99.90;;;;;;4921936;29;20050;-77
2021/12/06 11:53:42;;;;;;;44.42;19.00;;;2.80;99.90;;;;;;4955115;29;20495;-77
2021/12/06 11:56:18;;;;;;;41.00;18.75;;;2.80;99.90;;;;;;4938163;29;20043;-77
2021/12/06 11:58:54;;;;;;;42.05;18.33;;;2.80;99.90;;;;;;4954613;28;20058;-81
2021/12/06 12:01:26;;;;;;;35.38;16.05;;;2.80;99.90;;;;;;4954937;29;20050;-77
2021/12/06 12:03:54;;;;;;;34.40;16.08;;;2.80;99.90;;;;;;4955693;29;20043;-80
2021/12/06 12:06:25;;;;;;;32.08;16.83;;;2.80;99.90;;;;;;4955418;29;20039;-77
2021/12/06 12:09:07;;;;;;;35.13;18.00;;;2.80;99.90;;;;;;4955284;29;20051;-79
2021/12/06 12:12:08;;;;;;;37.17;17.20;;;2.80;99.90;;;;;;4955415;28;20047;-76
2021/12/06 12:14:58;;;;;;;39.58;18.95;;;2.80;99.90;;;;;;4955518;29;20403;-78
2021/12/06 12:17:36;;;;;;;34.40;16.30;;;2.80;99.90;;;;;;4955098;29;20074;-75
2021/12/06 12:20:10;;;;;;;35.58;16.88;;;2.80;99.90;;;;;;4955565;29;20118;-78
2021/12/06 12:22:37;;;;;;;37.70;17.90;;;2.70;99.90;;;;;;4955150;29;20098;-77
2021/12/06 12:25:09;;;;;;;38.13;17.50;;;2.80;99.90;;;;;;4955294;29;20086;-76
2021/12/06 12:27:43;;;;;;;36.03;18.13;;;2.80;99.90;;;;;;4955019;29;20059;-76
2021/12/06 12:30:09;;;;;;;40.33;19.05;;;2.80;99.90;;;;;;4954918;29;20039;-76
2021/12/06 12:32:36;;;;;;;43.22;19.63;;;3.60;99.90;;;;;;4954161;29;20403;-78
2021/12/06 12:35:13;;;;;;;45.25;19.63;;;2.80;99.90;;;;;;4955311;29;20043;-77
2021/12/06 12:37:40;;;;;;;42.70;20.13;;;2.80;99.90;;;;;;4954814;29;20047;-76
2021/12/06 12:40:14;;;;;;;44.95;18.95;;;3.10;99.90;;;;;;4955047;29;20047;-77
2021/12/06 12:43:01;;;;;;;41.72;20.95;;;2.90;99.90;;;;;;4953655;29;20123;-76
2021/12/06 12:45:42;;;;;;;49.42;20.80;;;2.80;99.90;;;;;;4954886;29;20043;-77
2021/12/06 12:48:10;;;;;;;46.22;20.73;;;2.80;99.90;;;;;;4954915;29;20471;-77
2021/12/06 12:50:35;;;;;;;47.50;21.00;;;2.90;99.90;;;;;;4954852;29;20158;-76
2021/12/06 12:53:08;;;;;;;45.42;20.17;;;2.90;99.90;;;;;;4937040;29;20123;-77
2021/12/06 12:55:43;;;;;;;52.97;21.67;;;2.90;99.90;;;;;;4954694;29;20051;-78
2021/12/06 12:58:17;;;;;;;57.65;24.00;;;2.90;99.90;;;;;;4954053;29;20094;-77
2021/12/06 13:00:47;;;;;;;48.10;21.45;;;2.90;99.90;;;;;;4937748;29;20051;-79